Time;durP1;ratioP1;P1;durP2;ratioP2;P2;SDS_P1;SDS_P2;PMS_P1;PMS_P2;Temp;Humidity;BMP_temperature;BMP_pressure;BME280_temperature;BME280_humidity;BME280_pressure;Samples;Min_cycle;Max_cycle;Signal;HPM_P1;HPM_P2
2023/06/30 00:00:57;;;;;;;6.15;3.83;;;;;;;21.00;57.80;99881.41;10245037;28;20250;-59
2023/06/30 00:05:58;;;;;;;8.70;4.45;;;;;;;20.99;57.57;99871.56;10244498;28;20071;-60
2023/06/30 00:11:00;;;;;;;7.53;4.45;;;;;;;20.98;57.85;99861.69;10243042;28;20066;-59
2023/06/30 00:16:01;;;;;;;8.00;3.90;;;;;;;20.86;58.33;99871.16;10243938;28;20062;-60
2023/06/30 00:21:03;;;;;;;7.25;4.28;;;;;;;20.71;58.77;99878.06;10243547;28;20894;-59
2023/06/30 00:26:04;;;;;;;6.43;4.05;;;;;;;20.80;58.33;99867.53;10227082;28;20051;-58
2023/06/30 00:31:06;;;;;;;9.40;3.90;;;;;;;20.83;58.50;99864.25;10246176;28;20517;-58
2023/06/30 00:36:07;;;;;;;8.07;4.22;;;;;;;20.77;58.56;99863.41;10246640;28;20117;-58
2023/06/30 00:41:09;;;;;;;10.20;4.47;;;;;;;20.89;58.62;99855.06;10246362;28;20051;-60
2023/06/30 00:46:13;;;;;;;7.28;4.30;;;;;;;21.01;58.67;99854.91;10240344;28;20080;-59
2023/06/30 00:51:14;;;;;;;7.90;3.88;;;;;;;21.09;58.10;99848.13;10242549;28;20402;-59
2023/06/30 00:56:16;;;;;;;6.90;4.05;;;;;;;21.24;58.11;99847.47;10218913;28;20055;-58
2023/06/30 01:01:20;;;;;;;6.70;3.30;;;;;;;21.30;57.74;99850.00;10242148;28;20062;-58
2023/06/30 01:06:40;;;;;;;8.85;3.53;;;;;;;21.38;58.18;99851.44;10247882;28;20053;-59
2023/06/30 01:11:42;;;;;;;7.95;4.28;;;;;;;21.40;57.87;99841.06;10245889;28;20054;-58
2023/06/30 01:16:45;;;;;;;9.77;4.57;;;;;;;21.41;58.38;99842.72;10248763;28;20150;-59
2023/06/30 01:21:47;;;;;;;7.93;4.68;;;;;;;21.30;58.78;99828.13;10242804;28;20047;-58
2023/06/30 01:26:49;;;;;;;6.75;3.42;;;;;;;21.36;58.46;99823.53;10242634;28;20047;-59
2023/06/30 01:31:51;;;;;;;12.95;4.43;;;;;;;21.34;58.98;99818.31;10242887;28;20062;-58
2023/06/30 01:36:52;;;;;;;13.52;4.43;;;;;;;21.42;58.96;99819.75;10237632;28;20529;-59
2023/06/30 01:41:54;;;;;;;9.05;4.07;;;;;;;21.48;58.45;99824.19;10240614;28;20047;-59
2023/06/30 01:46:56;;;;;;;10.23;4.30;;;;;;;21.47;58.64;99830.75;10243831;28;20057;-60
2023/06/30 01:51:57;;;;;;;9.15;3.88;;;;;;;21.49;59.11;99808.63;10245807;28;20055;-59
2023/06/30 01:56:58;;;;;;;11.50;3.80;;;;;;;21.57;59.06;99792.53;10243418;28;20047;-60
2023/06/30 02:02:00;;;;;;;7.53;4.10;;;;;;;21.61;58.58;99800.25;10241652;28;20044;-62
2023/06/30 02:07:02;;;;;;;9.82;3.67;;;;;;;21.64;58.94;99791.50;10234870;28;20062;-61
2023/06/30 02:12:04;;;;;;;12.30;3.95;;;;;;;21.67;58.54;99785.50;10237581;28;20106;-60
2023/06/30 02:17:06;;;;;;;7.15;3.05;;;;;;;21.69;58.39;99797.81;10244194;28;20343;-61
2023/06/30 02:22:08;;;;;;;7.30;3.05;;;;;;;21.71;58.75;99792.91;10222565;28;20047;-61
2023/06/30 02:27:09;;;;;;;7.10;3.50;;;;;;;21.72;58.40;99801.94;10249498;28;20055;-61
2023/06/30 02:32:11;;;;;;;7.57;3.65;;;;;;;21.77;58.51;99796.50;10245931;28;20656;-61
2023/06/30 02:37:12;;;;;;;8.73;4.60;;;;;;;21.79;58.25;99788.88;10251022;28;20130;-61
2023/06/30 02:42:14;;;;;;;9.88;3.80;;;;;;;21.86;58.51;99800.41;10245930;28;20062;-59
2023/06/30 02:47:15;;;;;;;9.15;4.53;;;;;;;21.87;58.66;99799.31;10248224;28;20055;-62
2023/06/30 02:52:17;;;;;;;9.40;4.55;;;;;;;21.85;58.70;99795.19;10253781;28;20051;-60
2023/06/30 02:57:19;;;;;;;8.05;3.97;;;;;;;21.76;58.66;99798.44;10250372;28;20047;-60
2023/06/30 03:02:20;;;;;;;6.97;4.20;;;;;;;21.63;59.02;99807.09;10223677;28;20081;-59
2023/06/30 03:07:22;;;;;;;9.02;4.57;;;;;;;21.61;59.25;99798.31;10248780;28;20134;-59
2023/06/30 03:12:24;;;;;;;9.20;4.32;;;;;;;21.55;59.38;99781.03;10250987;28;20146;-59
2023/06/30 03:17:25;;;;;;;9.32;4.13;;;;;;;21.48;59.93;99791.38;10244780;28;20452;-59
2023/06/30 03:22:27;;;;;;;10.45;4.85;;;;;;;21.46;60.09;99790.00;10241608;28;20047;-59
2023/06/30 03:27:29;;;;;;;9.25;4.75;;;;;;;21.47;60.12;99784.28;10247796;28;20055;-59
2023/06/30 03:32:33;;;;;;;13.15;5.30;;;;;;;21.43;59.99;99776.84;10250563;28;20059;-61
2023/06/30 03:37:34;;;;;;;10.70;5.20;;;;;;;21.40;60.16;99794.56;10242264;28;20075;-59
2023/06/30 03:42:36;;;;;;;8.15;4.45;;;;;;;21.36;60.41;99802.47;10240061;28;20052;-60
2023/06/30 03:47:37;;;;;;;11.95;5.35;;;;;;;21.38;60.61;99785.81;10245701;28;20086;-59
2023/06/30 03:52:39;;;;;;;10.70;5.82;;;;;;;21.37;60.64;99812.34;10246093;28;20057;-59
2023/06/30 03:57:40;;;;;;;13.02;5.95;;;;;;;21.33;60.84;99824.06;10248399;28;20044;-59
2023/06/30 04:02:42;;;;;;;13.38;7.30;;;;;;;21.22;61.48;99834.06;10242586;28;20581;-60
2023/06/30 04:07:43;;;;;;;14.65;7.40;;;;;;;20.76;63.85;99819.94;10244230;28;20403;-59
2023/06/30 04:12:45;;;;;;;14.07;7.45;;;;;;;20.55;65.41;99816.94;10244508;28;20047;-58
2023/06/30 04:17:46;;;;;;;18.50;9.77;;;;;;;20.23;67.44;99825.00;10253979;28;20047;-59
2023/06/30 04:22:48;;;;;;;15.30;8.10;;;;;;;20.15;68.72;99815.34;10255596;28;20071;-59
2023/06/30 04:27:50;;;;;;;15.80;8.43;;;;;;;20.10;69.47;99795.34;10221220;28;20491;-60
2023/06/30 04:32:51;;;;;;;14.68;9.43;;;;;;;20.08;70.56;99795.59;10251258;28;20042;-59
2023/06/30 04:37:53;;;;;;;22.15;9.93;;;;;;;20.07;70.47;99804.06;10254594;28;20079;-62
2023/06/30 04:42:54;;;;;;;20.58;9.60;;;;;;;20.09;70.90;99804.63;10244139;28;20059;-59
2023/06/30 04:47:55;;;;;;;18.05;9.30;;;;;;;20.11;71.30;99794.28;10249443;28;20058;-60
2023/06/30 04:52:57;;;;;;;21.98;11.10;;;;;;;20.14;71.46;99801.94;10249967;28;20054;-58
2023/06/30 04:57:58;;;;;;;24.65;12.55;;;;;;;19.90;72.50;99802.16;10244943;28;20142;-59
2023/06/30 05:03:02;;;;;;;22.10;12.10;;;;;;;20.03;72.46;99803.72;10245085;28;20121;-60
2023/06/30 05:08:03;;;;;;;25.92;12.35;;;;;;;20.20;72.70;99790.00;10242964;28;20049;-59
2023/06/30 05:13:05;;;;;;;25.27;13.60;;;;;;;20.11;73.33;99786.09;10241581;28;20051;-59
2023/06/30 05:18:06;;;;;;;29.73;15.32;;;;;;;20.07;73.78;99798.59;10244191;28;20052;-59
2023/06/30 05:23:08;;;;;;;31.38;16.92;;;;;;;20.21;73.66;99795.22;10241040;28;20047;-58
2023/06/30 05:28:09;;;;;;;32.10;16.58;;;;;;;20.23;73.68;99799.63;10248354;28;20051;-59
2023/06/30 05:33:11;;;;;;;31.98;16.95;;;;;;;20.46;73.25;99801.25;10240857;28;20043;-59
2023/06/30 05:38:12;;;;;;;29.55;16.85;;;;;;;20.66;73.27;99792.53;10236671;28;20145;-58
2023/06/30 05:43:14;;;;;;;31.40;16.40;;;;;;;20.86;72.46;99791.91;10240483;28;20066;-60
2023/06/30 05:48:15;;;;;;;34.60;18.02;;;;;;;20.96;72.32;99789.28;10242782;28;20055;-59
2023/06/30 05:53:17;;;;;;;33.17;17.30;;;;;;;21.09;72.06;99793.47;10235898;28;20126;-60
2023/06/30 05:58:18;;;;;;;30.40;17.15;;;;;;;21.10;72.29;99806.06;10235890;28;20043;-61
2023/06/30 06:03:20;;;;;;;37.63;18.45;;;;;;;21.20;71.83;99814.38;10248508;28;20054;-59
2023/06/30 06:08:21;;;;;;;37.50;17.60;;;;;;;21.34;71.43;99812.84;10248181;28;20082;-58
2023/06/30 06:13:33;;;;;;;35.58;18.20;;;;;;;21.48;71.07;99812.44;10248187;28;20054;-59
2023/06/30 06:18:35;;;;;;;30.88;17.17;;;;;;;21.70;70.71;99820.53;10247775;28;20047;-58
2023/06/30 06:23:36;;;;;;;34.60;20.05;;;;;;;21.91;69.76;99827.78;10237058;28;20056;-59
2023/06/30 06:28:38;;;;;;;33.03;18.45;;;;;;;21.95;69.12;99828.09;10240259;28;20051;-58
2023/06/30 06:33:39;;;;;;;34.13;18.88;;;;;;;21.82;69.12;99836.75;10245469;28;20450;-60
2023/06/30 06:38:40;;;;;;;43.60;19.90;;;;;;;21.83;68.40;99838.41;10252147;28;20043;-59
2023/06/30 06:43:42;;;;;;;46.25;21.98;;;;;;;21.89;67.93;99842.84;10247324;28;20384;-58
2023/06/30 06:48:43;;;;;;;39.80;20.23;;;;;;;22.11;67.28;99835.28;10243112;28;20054;-59
2023/06/30 06:53:45;;;;;;;36.20;18.55;;;;;;;22.29;66.73;99838.72;10242991;28;20067;-59
2023/06/30 06:58:46;;;;;;;30.42;16.00;;;;;;;22.34;66.47;99838.75;10236612;28;20047;-58
2023/06/30 07:03:48;;;;;;;31.02;15.13;;;;;;;22.57;65.99;99840.19;10235064;28;20058;-58
2023/06/30 07:08:50;;;;;;;19.35;10.07;;;;;;;22.46;65.78;99844.81;10233152;28;20123;-58
2023/06/30 07:13:51;;;;;;;14.32;6.35;;;;;;;22.58;65.30;99842.69;10232371;28;20537;-58
2023/06/30 07:18:53;;;;;;;4.55;2.50;;;;;;;22.28;65.12;99843.38;10217203;28;20047;-58
2023/06/30 07:23:54;;;;;;;3.65;2.15;;;;;;;22.46;64.79;99852.22;10229102;28;20058;-60
2023/06/30 07:28:56;;;;;;;2.63;1.65;;;;;;;22.48;64.45;99859.06;10230582;28;20717;-59
2023/06/30 07:33:57;;;;;;;2.40;1.48;;;;;;;22.54;63.82;99868.16;10239301;28;20051;-57
2023/06/30 07:38:59;;;;;;;1.67;1.10;;;;;;;22.33;64.24;99867.22;10239330;28;20066;-58
2023/06/30 07:44:01;;;;;;;1.35;0.80;;;;;;;22.44;63.68;99876.31;10243845;28;20055;-61
2023/06/30 07:49:03;;;;;;;1.15;0.52;;;;;;;22.13;63.70;99870.63;10239683;28;20047;-58
2023/06/30 07:54:05;;;;;;;1.67;0.73;;;;;;;21.89;63.51;99878.41;10243481;28;20047;-61
2023/06/30 07:59:06;;;;;;;1.30;0.50;;;;;;;21.79;63.44;99884.63;10242857;28;20047;-58
2023/06/30 08:04:08;;;;;;;2.45;0.50;;;;;;;21.77;63.60;99884.06;10243539;28;20138;-58
2023/06/30 08:09:10;;;;;;;0.90;0.40;;;;;;;21.88;63.32;99877.59;10241181;28;20498;-59
2023/06/30 08:14:12;;;;;;;0.93;0.45;;;;;;;21.95;63.24;99885.56;10241638;28;20517;-61
2023/06/30 08:19:13;;;;;;;1.40;0.40;;;;;;;22.15;62.40;99882.13;10243529;28;20061;-58
2023/06/30 08:24:35;;;;;;;2.22;0.47;;;;;;;22.04;62.64;99880.41;10238983;28;20447;-58
2023/06/30 08:29:37;;;;;;;0.73;0.50;;;;;;;22.21;61.96;99889.28;10222799;28;20537;-61
2023/06/30 08:34:38;;;;;;;0.85;0.38;;;;;;;21.96;62.23;99887.22;10241632;28;20058;-58
2023/06/30 08:39:40;;;;;;;1.27;0.40;;;;;;;21.91;62.35;99900.88;10240289;28;20056;-68
2023/06/30 08:44:46;;;;;;;0.47;0.30;;;;;;;21.92;61.79;99889.66;10239046;28;20054;-63
2023/06/30 08:49:48;;;;;;;0.88;0.30;;;;;;;21.86;61.95;99890.72;10215339;28;20078;-69
2023/06/30 08:54:49;;;;;;;1.85;0.60;;;;;;;21.88;61.96;99904.13;10249826;28;20048;-68
2023/06/30 08:59:51;;;;;;;0.55;0.20;;;;;;;21.89;61.91;99903.03;10239499;28;20039;-68
2023/06/30 09:04:53;;;;;;;0.80;0.50;;;;;;;22.05;61.75;99895.75;10238874;28;20054;-69
2023/06/30 09:10:00;;;;;;;1.35;0.25;;;;;;;21.96;61.65;99906.38;10245589;28;20272;-65
2023/06/30 09:15:01;;;;;;;;;;;;;;;21.76;61.71;99901.56;10240980;28;20061;-67
2023/06/30 09:20:03;;;;;;;0.20;0.20;;;;;;;21.77;61.68;99914.16;10238035;28;19933;-70
2023/06/30 09:25:04;;;;;;;0.13;0.10;;;;;;;21.52;61.54;99925.69;10241731;28;20055;-71
2023/06/30 09:30:07;;;;;;;0.20;0.20;;;;;;;21.37;61.57;99923.63;10240736;28;20043;-66
2023/06/30 09:35:12;;;;;;;0.40;0.20;;;;;;;21.67;61.35;99919.56;10246357;28;20050;-67
2023/06/30 09:40:15;;;;;;;0.17;0.10;;;;;;;21.85;60.98;99930.09;10229723;28;20413;-69
2023/06/30 09:45:16;;;;;;;0.25;0.08;;;;;;;21.91;60.77;99930.97;10248549;28;20070;-62
2023/06/30 09:50:23;;;;;;;0.13;0.10;;;;;;;22.01;60.66;99925.56;10252016;28;20057;-67
2023/06/30 09:55:25;;;;;;;0.13;0.10;;;;;;;21.84;60.60;99933.09;10252114;28;20039;-69
2023/06/30 10:00:28;;;;;;;0.43;0.10;;;;;;;21.68;60.41;99927.50;10251326;28;20043;-71
2023/06/30 10:05:51;;;;;;;0.38;0.10;;;;;;;21.78;59.92;99927.59;10250066;28;20075;-70
2023/06/30 10:10:55;;;;;;;3.00;0.10;;;;;;;21.57;59.98;99943.00;10247401;28;20047;-73
2023/06/30 10:15:57;;;;;;;0.13;0.10;;;;;;;21.62;59.96;99941.38;10247088;28;20074;-67
2023/06/30 10:20:59;;;;;;;2.17;0.10;;;;;;;21.78;59.68;99933.06;10251239;28;20074;-72
2023/06/30 10:26:04;;;;;;;0.00;0.00;;;;;;;21.89;58.63;99938.63;10257844;28;20063;-73
2023/06/30 10:31:05;;;;;;;0.10;0.10;;;;;;;21.93;58.39;99940.56;10239733;28;20494;-73
2023/06/30 10:36:08;;;;;;;0.30;0.10;;;;;;;22.08;57.89;99947.25;10259078;28;20053;-74
2023/06/30 10:41:16;;;;;;;0.22;0.00;;;;;;;22.24;57.44;99945.47;10240769;28;20062;-70
2023/06/30 10:46:18;;;;;;;0.10;0.00;;;;;;;22.28;57.41;99952.91;10244447;28;20061;-70
2023/06/30 10:51:20;;;;;;;0.20;0.17;;;;;;;22.21;57.18;99963.22;10261752;28;20082;-73
2023/06/30 10:56:22;;;;;;;0.20;0.00;;;;;;;22.01;57.72;99958.41;10237755;28;20047;-72
2023/06/30 11:01:23;;;;;;;0.10;0.10;;;;;;;21.66;58.14;99967.94;10231734;28;20047;-71
2023/06/30 11:06:26;;;;;;;0.10;0.10;;;;;;;21.54;58.37;99953.63;10230009;28;20049;-70
2023/06/30 11:11:28;;;;;;;0.10;0.10;;;;;;;21.53;57.91;99958.28;10233663;28;20051;-72
2023/06/30 11:16:29;;;;;;;0.20;0.20;;;;;;;21.58;57.93;99961.06;10262548;28;20118;-72
2023/06/30 11:21:32;;;;;;;0.30;0.13;;;;;;;21.62;58.04;99952.31;10255851;28;20054;-74
2023/06/30 11:26:36;;;;;;;0.10;0.10;;;;;;;22.25;56.88;99953.41;10230419;28;20067;-71
2023/06/30 11:31:37;;;;;;;0.88;0.20;;;;;;;22.68;55.88;99953.41;10260336;28;20075;-71
2023/06/30 11:36:39;;;;;;;0.30;0.20;;;;;;;22.75;55.45;99962.22;10259125;28;20051;-71
2023/06/30 11:41:43;;;;;;;0.80;0.20;;;;;;;23.14;54.63;99945.41;10259041;28;20053;-72
2023/06/30 11:46:45;;;;;;;1.85;0.17;;;;;;;23.28;54.44;99934.75;10243504;28;20070;-72
2023/06/30 11:51:47;;;;;;;0.20;0.10;;;;;;;23.31;53.82;99932.28;10260361;28;20087;-70
2023/06/30 11:56:48;;;;;;;0.52;0.20;;;;;;;23.23;53.77;99938.31;10234083;28;20065;-70
2023/06/30 12:01:50;;;;;;;1.63;0.30;;;;;;;23.45;52.98;99932.59;10247306;28;20053;-73
2023/06/30 12:06:55;;;;;;;1.02;0.30;;;;;;;23.74;52.14;99926.59;10253152;28;20051;-72
2023/06/30 12:11:56;;;;;;;0.70;0.20;;;;;;;23.90;51.77;99938.44;10247285;28;20082;-77
2023/06/30 12:16:58;;;;;;;0.30;0.30;;;;;;;23.95;51.97;99936.53;10243136;28;20059;-68
2023/06/30 12:22:01;;;;;;;1.20;0.30;;;;;;;23.96;51.49;99929.09;10235657;28;20450;-68
2023/06/30 12:27:05;;;;;;;1.00;0.30;;;;;;;23.95;51.30;99921.94;10242180;28;20055;-72
2023/06/30 12:32:13;;;;;;;0.90;0.40;;;;;;;24.24;50.39;99930.44;10242789;28;20054;-70
2023/06/30 12:37:17;;;;;;;0.63;0.57;;;;;;;24.26;49.85;99924.66;10238913;28;20054;-71
2023/06/30 12:42:19;;;;;;;0.30;0.30;;;;;;;23.98;49.87;99932.38;10237986;28;20065;-71
2023/06/30 12:47:20;;;;;;;3.22;0.50;;;;;;;24.17;49.73;99927.16;10241893;28;20054;-68
2023/06/30 12:52:22;;;;;;;1.77;0.40;;;;;;;24.57;48.89;99921.88;10239791;28;20070;-69
2023/06/30 12:57:23;;;;;;;0.40;0.40;;;;;;;25.02;47.80;99920.03;10242250;28;20050;-70
2023/06/30 13:02:25;;;;;;;1.02;0.50;;;;;;;24.80;47.71;99921.22;10239830;28;20043;-70
2023/06/30 13:07:26;;;;;;;0.90;0.47;;;;;;;24.75;47.70;99924.00;10245433;28;20480;-67
2023/06/30 13:12:29;;;;;;;1.00;0.50;;;;;;;25.07;47.07;99920.81;10245614;28;20143;-71
2023/06/30 13:17:30;;;;;;;1.35;0.50;;;;;;;25.42;46.71;99916.25;10238830;28;20562;-68
2023/06/30 13:22:32;;;;;;;3.42;0.98;;;;;;;25.98;45.44;99909.50;10238764;28;20486;-71
2023/06/30 13:27:34;;;;;;;0.70;0.70;;;;;;;25.75;45.10;99908.31;10245320;28;20051;-70
2023/06/30 13:32:39;;;;;;;0.98;0.50;;;;;;;26.34;44.18;99909.16;10240528;28;20498;-71
2023/06/30 13:37:40;;;;;;;4.10;0.47;;;;;;;26.57;43.99;99903.94;10243852;28;20062;-67
2023/06/30 13:42:42;;;;;;;2.67;0.55;;;;;;;26.42;43.92;99897.50;10242945;28;20050;-67
2023/06/30 13:47:46;;;;;;;0.93;0.40;;;;;;;26.47;43.03;99889.16;10243333;28;20054;-68
2023/06/30 13:52:48;;;;;;;1.88;0.60;;;;;;;27.01;41.94;99880.78;10244454;28;20052;-67
2023/06/30 13:57:49;;;;;;;2.10;0.60;;;;;;;27.70;41.17;99875.63;10241959;28;20047;-67
2023/06/30 14:02:52;;;;;;;2.05;0.50;;;;;;;28.96;38.91;99878.19;10242554;28;20074;-66
2023/06/30 14:07:53;;;;;;;1.10;0.60;;;;;;;29.62;37.20;99875.84;10236279;28;20051;-66
2023/06/30 14:12:55;;;;;;;2.10;0.50;;;;;;;31.17;35.25;99859.34;10237286;28;20070;-66
2023/06/30 14:17:56;;;;;;;1.33;0.65;;;;;;;31.02;34.85;99857.88;10238484;28;20522;-66
2023/06/30 14:22:58;;;;;;;2.35;0.50;;;;;;;29.60;36.30;99860.66;10247765;28;20161;-68
2023/06/30 14:28:00;;;;;;;1.52;0.70;;;;;;;28.74;36.90;99867.06;10248979;28;20126;-65
2023/06/30 14:33:02;;;;;;;1.70;0.90;;;;;;;28.69;36.42;99862.44;10250247;28;20055;-67
2023/06/30 14:38:04;;;;;;;1.30;0.70;;;;;;;28.01;36.85;99853.00;10245064;28;20062;-70
2023/06/30 14:43:05;;;;;;;2.47;1.00;;;;;;;28.46;36.04;99847.72;10244304;28;20051;-68
2023/06/30 14:48:07;;;;;;;2.30;0.70;;;;;;;28.22;36.31;99853.44;10244146;28;20054;-61
2023/06/30 14:53:09;;;;;;;1.27;0.73;;;;;;;27.65;36.48;99839.81;10247301;28;20105;-61
2023/06/30 14:58:10;;;;;;;1.15;0.70;;;;;;;27.12;37.32;99840.09;10252620;28;20078;-60
2023/06/30 15:03:12;;;;;;;2.42;0.80;;;;;;;27.37;36.98;99817.63;10217001;28;20055;-60
2023/06/30 15:08:13;;;;;;;3.45;0.70;;;;;;;27.86;35.96;99827.28;10248612;28;20047;-62
2023/06/30 15:13:15;;;;;;;3.25;0.70;;;;;;;27.89;35.67;99826.69;10258061;28;20051;-61
2023/06/30 15:18:16;;;;;;;1.25;0.40;;;;;;;27.00;35.76;99818.47;10251407;28;20537;-61
2023/06/30 15:23:18;;;;;;;1.58;0.30;;;;;;;27.21;35.53;99818.94;10247438;28;20053;-60
2023/06/30 15:28:19;;;;;;;0.82;0.40;;;;;;;27.82;34.57;99812.41;10248462;28;20055;-62
2023/06/30 15:33:20;;;;;;;1.17;0.30;;;;;;;28.08;34.32;99815.56;10250911;28;20047;-62
2023/06/30 15:38:22;;;;;;;1.23;0.40;;;;;;;28.35;33.89;99799.28;10251008;28;20562;-62
2023/06/30 15:43:23;;;;;;;2.10;0.43;;;;;;;28.35;33.49;99802.03;10227831;28;20081;-61
2023/06/30 15:48:25;;;;;;;1.48;0.28;;;;;;;27.90;34.13;99808.16;10246195;28;20536;-61
2023/06/30 15:53:26;;;;;;;1.20;0.40;;;;;;;27.85;34.16;99799.94;10246920;28;20063;-61
2023/06/30 15:58:29;;;;;;;1.13;0.40;;;;;;;27.70;34.37;99792.75;10248906;28;20585;-61
2023/06/30 16:03:30;;;;;;;2.67;0.30;;;;;;;27.36;34.61;99785.63;10245258;28;20293;-62
2023/06/30 16:08:32;;;;;;;2.15;0.40;;;;;;;27.41;34.82;99788.31;10242908;28;20062;-62
2023/06/30 16:13:33;;;;;;;2.35;0.30;;;;;;;27.11;35.00;99786.81;10246253;28;20070;-62
2023/06/30 16:18:36;;;;;;;0.85;0.45;;;;;;;26.90;35.18;99778.06;10248974;28;20054;-70
2023/06/30 16:23:37;;;;;;;1.05;0.40;;;;;;;26.51;35.08;99774.44;10245635;28;20546;-68
2023/06/30 16:28:39;;;;;;;4.05;0.55;;;;;;;26.40;35.17;99772.09;10250176;28;20142;-70
2023/06/30 16:33:40;;;;;;;0.52;0.40;;;;;;;26.72;34.77;99757.66;10248897;28;20073;-65
2023/06/30 16:38:43;;;;;;;1.70;0.82;;;;;;;26.97;34.93;99766.63;10231155;28;20580;-68
2023/06/30 16:43:44;;;;;;;3.60;0.85;;;;;;;26.52;34.96;99765.06;10233296;28;20051;-71
2023/06/30 16:48:46;;;;;;;1.85;0.43;;;;;;;26.72;34.78;99757.66;10217934;28;20066;-70
2023/06/30 16:53:47;;;;;;;1.60;0.40;;;;;;;26.59;34.65;99764.72;10226062;28;20059;-68
2023/06/30 16:58:49;;;;;;;2.38;0.30;;;;;;;26.50;33.70;99766.44;10231893;28;20138;-71
2023/06/30 17:03:53;;;;;;;3.13;0.65;;;;;;;26.23;33.50;99770.66;10229821;28;20039;-67
2023/06/30 17:08:55;;;;;;;1.58;0.40;;;;;;;26.14;33.04;99774.38;10231241;28;20094;-66
2023/06/30 17:13:56;;;;;;;1.63;0.30;;;;;;;26.00;32.99;99782.50;10214548;28;20471;-69
2023/06/30 17:18:58;;;;;;;2.25;0.40;;;;;;;25.77;32.73;99781.34;10230042;28;20058;-68
2023/06/30 17:24:00;;;;;;;1.17;0.25;;;;;;;25.85;32.37;99781.53;10237084;28;20055;-64
2023/06/30 17:29:01;;;;;;;1.90;0.30;;;;;;;25.47;32.24;99788.78;10215829;28;20055;-67
2023/06/30 17:34:03;;;;;;;1.15;0.28;;;;;;;25.32;32.21;99787.00;10250076;28;20082;-63
2023/06/30 17:39:05;;;;;;;0.75;0.30;;;;;;;25.52;31.33;99788.75;10275391;28;20070;-63
2023/06/30 17:44:06;;;;;;;2.65;0.45;;;;;;;25.79;30.71;99790.97;10241974;28;20104;-67
2023/06/30 17:49:28;;;;;;;4.68;0.30;;;;;;;25.99;30.81;99786.38;10244790;28;20055;-66
2023/06/30 17:54:30;;;;;;;0.50;0.40;;;;;;;26.17;30.86;99791.13;10243398;28;20039;-68
2023/06/30 17:59:32;;;;;;;1.40;0.20;;;;;;;26.05;30.85;99796.25;10246960;28;20051;-66
2023/06/30 18:04:33;;;;;;;1.48;0.30;;;;;;;26.43;30.11;99810.13;10257625;28;20048;-65
2023/06/30 18:09:37;;;;;;;1.58;0.32;;;;;;;26.48;29.81;99799.84;10239114;28;20183;-69
2023/06/30 18:14:40;;;;;;;0.63;0.20;;;;;;;26.08;29.77;99801.16;10231752;28;20048;-69
2023/06/30 18:19:42;;;;;;;0.45;0.20;;;;;;;25.96;30.49;99812.56;10251051;28;20054;-68
2023/06/30 18:24:43;;;;;;;0.43;0.20;;;;;;;25.73;30.45;99809.47;10247244;28;20664;-62
2023/06/30 18:29:45;;;;;;;3.63;0.30;;;;;;;25.49;30.41;99817.69;10246163;28;20051;-64
2023/06/30 18:34:46;;;;;;;0.60;0.20;;;;;;;25.25;31.10;99823.09;10240773;28;20254;-63
2023/06/30 18:39:48;;;;;;;2.03;0.38;;;;;;;24.99;31.31;99816.09;10237249;28;20604;-62
2023/06/30 18:44:51;;;;;;;0.68;0.30;;;;;;;24.71;31.52;99826.72;10238281;28;20051;-62
2023/06/30 18:49:52;;;;;;;0.47;0.30;;;;;;;24.53;31.86;99822.69;10245209;28;20047;-62
2023/06/30 18:54:54;;;;;;;0.63;0.30;;;;;;;24.25;32.49;99833.19;10248740;28;20600;-63
2023/06/30 18:59:55;;;;;;;2.90;0.40;;;;;;;24.04;33.00;99824.19;10250509;28;20490;-63
2023/06/30 19:04:57;;;;;;;1.65;0.20;;;;;;;23.80;33.49;99837.69;10245954;28;20047;-63
2023/06/30 19:09:58;;;;;;;2.45;0.32;;;;;;;23.59;33.99;99841.53;10245116;28;20055;-62
2023/06/30 19:15:02;;;;;;;1.83;0.30;;;;;;;23.49;34.43;99837.66;10248719;28;20433;-62
2023/06/30 19:20:04;;;;;;;1.15;0.35;;;;;;;23.37;34.56;99845.34;10242383;28;20094;-62
2023/06/30 19:25:06;;;;;;;0.90;0.40;;;;;;;23.32;34.74;99848.94;10249950;28;20062;-66
2023/06/30 19:30:07;;;;;;;0.98;0.40;;;;;;;23.20;35.01;99856.56;10248557;28;20430;-63
2023/06/30 19:35:09;;;;;;;2.00;0.30;;;;;;;23.00;35.48;99862.81;10247150;28;20060;-62
2023/06/30 19:40:11;;;;;;;2.35;0.40;;;;;;;22.98;35.51;99867.75;10225766;28;20395;-62
2023/06/30 19:45:12;;;;;;;1.75;0.40;;;;;;;22.95;35.37;99869.09;10245193;28;20506;-62
2023/06/30 19:50:14;;;;;;;0.45;0.28;;;;;;;22.88;35.63;99870.47;10246447;28;20557;-62
2023/06/30 19:55:18;;;;;;;0.47;0.30;;;;;;;22.80;35.50;99860.84;10233311;28;20087;-61
2023/06/30 20:00:20;;;;;;;1.88;0.38;;;;;;;22.67;35.56;99866.81;10248280;28;20059;-62
2023/06/30 20:05:21;;;;;;;2.85;0.28;;;;;;;22.49;35.78;99865.38;10241930;28;20514;-59
2023/06/30 20:10:23;;;;;;;4.03;0.40;;;;;;;22.38;36.07;99861.78;10246467;28;20047;-58
2023/06/30 20:15:25;;;;;;;2.35;0.40;;;;;;;22.38;36.01;99856.28;10243509;28;20070;-58
2023/06/30 20:20:27;;;;;;;1.33;0.60;;;;;;;22.35;36.64;99856.81;10237442;28;20049;-59
2023/06/30 20:25:29;;;;;;;2.50;0.98;;;;;;;22.32;37.05;99857.38;10243930;28;20065;-59
2023/06/30 20:30:30;;;;;;;3.25;0.73;;;;;;;22.15;37.95;99861.06;10241270;28;20047;-59
2023/06/30 20:35:32;;;;;;;1.20;0.60;;;;;;;22.04;38.37;99861.25;10245791;28;20523;-59
2023/06/30 20:40:33;;;;;;;2.95;0.80;;;;;;;21.89;39.03;99860.06;10242653;28;20525;-59
2023/06/30 20:45:35;;;;;;;1.42;0.50;;;;;;;21.73;39.31;99858.31;10237961;28;20074;-58
2023/06/30 20:50:36;;;;;;;4.88;1.20;;;;;;;21.52;39.78;99866.34;10245138;28;20052;-59
2023/06/30 20:55:38;;;;;;;1.17;0.57;;;;;;;21.29;40.25;99858.47;10236420;28;20047;-59
2023/06/30 21:00:39;;;;;;;2.47;0.60;;;;;;;21.17;40.15;99861.38;10235411;28;20082;-60
2023/06/30 21:05:41;;;;;;;3.97;1.00;;;;;;;21.05;40.40;99852.47;10236976;28;20062;-58
2023/06/30 21:10:42;;;;;;;3.45;0.90;;;;;;;20.93;40.81;99853.47;10240691;28;20051;-58
2023/06/30 21:15:43;;;;;;;3.42;0.60;;;;;;;20.79;41.85;99858.50;10224697;28;20047;-59
2023/06/30 21:20:45;;;;;;;1.98;0.40;;;;;;;20.71;42.15;99853.47;10240161;28;20051;-58
2023/06/30 21:25:47;;;;;;;4.50;0.65;;;;;;;20.54;42.88;99853.53;10239582;28;20078;-58
2023/06/30 21:30:48;;;;;;;1.55;0.90;;;;;;;20.45;42.99;99854.22;10233497;28;20132;-59
2023/06/30 21:35:50;;;;;;;2.05;0.73;;;;;;;20.35;43.33;99850.28;10239222;28;20077;-59
2023/06/30 21:40:51;;;;;;;5.30;0.90;;;;;;;20.22;44.09;99847.91;10238641;28;20047;-59
2023/06/30 21:45:54;;;;;;;1.13;0.57;;;;;;;20.05;44.09;99850.69;10239793;28;20051;-58
2023/06/30 21:50:56;;;;;;;2.33;0.80;;;;;;;19.82;45.03;99848.97;10236933;28;20055;-58
2023/06/30 21:55:57;;;;;;;3.00;0.73;;;;;;;19.69;45.52;99838.38;10232614;28;20051;-58
2023/06/30 22:00:59;;;;;;;2.15;0.90;;;;;;;19.60;45.88;99838.78;10235939;28;20048;-58
2023/06/30 22:06:01;;;;;;;5.38;0.80;;;;;;;19.45;45.82;99843.16;10238122;28;20047;-59
2023/06/30 22:11:02;;;;;;;3.97;1.30;;;;;;;19.31;46.19;99834.47;10237462;28;20071;-58
2023/06/30 22:16:04;;;;;;;2.83;0.98;;;;;;;19.21;46.61;99825.06;10222137;28;20771;-59
2023/06/30 22:21:05;;;;;;;2.78;0.88;;;;;;;19.14;46.79;99820.84;10244838;28;20435;-58
2023/06/30 22:26:06;;;;;;;3.05;1.20;;;;;;;19.07;47.27;99825.63;10238424;28;20043;-58
2023/06/30 22:31:08;;;;;;;4.15;1.35;;;;;;;18.94;47.88;99830.31;10219945;28;20051;-58
2023/06/30 22:36:10;;;;;;;3.75;1.58;;;;;;;18.89;48.14;99821.22;10239279;28;20066;-59
2023/06/30 22:41:11;;;;;;;5.03;1.83;;;;;;;18.79;48.31;99824.53;10238962;28;20056;-59
2023/06/30 22:46:13;;;;;;;7.80;2.85;;;;;;;18.71;48.74;99827.66;10226574;28;20511;-59
2023/06/30 22:51:17;;;;;;;4.65;2.60;;;;;;;18.58;49.15;99823.28;10243646;28;20132;-59
2023/06/30 22:56:18;;;;;;;6.50;2.40;;;;;;;18.43;49.57;99823.81;10247573;28;20051;-59
2023/06/30 23:01:20;;;;;;;6.45;2.67;;;;;;;18.34;49.78;99822.53;10246969;28;20059;-59
2023/06/30 23:06:21;;;;;;;8.13;2.17;;;;;;;18.23;50.13;99819.63;10243793;28;20051;-59
2023/06/30 23:11:23;;;;;;;5.57;2.58;;;;;;;18.03;50.70;99814.56;10243515;28;20059;-58
2023/06/30 23:16:24;;;;;;;2.30;1.45;;;;;;;17.92;50.44;99823.53;10245629;28;20153;-58
2023/06/30 23:21:27;;;;;;;2.83;1.23;;;;;;;17.76;50.48;99819.63;10241797;28;20068;-59